createdAt,value
2023-02-02T00:01:59.115Z,101266.47
2023-02-02T00:04:31.457Z,101262.13
2023-02-02T00:06:58.774Z,101265.56
2023-02-02T00:09:30.882Z,101272.53
2023-02-02T00:11:58.534Z,101262.97
2023-02-02T00:14:25.454Z,101252.53
2023-02-02T00:16:53.830Z,101252.53
2023-02-02T00:19:24.735Z,101264.69
2023-02-02T00:21:51.169Z,101258.63
2023-02-02T00:24:18.233Z,101256.88
2023-02-02T00:26:48.099Z,101253.41
2023-02-02T00:29:18.190Z,101250.78
2023-02-02T00:31:44.949Z,101243.84
2023-02-02T00:34:13.131Z,101251.66
2023-02-02T00:36:39.889Z,101240.38
2023-02-02T00:39:07.147Z,101247.31
2023-02-02T00:41:33.640Z,101243.84
2023-02-02T00:44:18.660Z,101242.94
2023-02-02T00:46:45.124Z,101239.47
2023-02-02T00:49:11.575Z,101239.47
2023-02-02T00:51:38.301Z,101238.59
2023-02-02T00:54:05.218Z,101248.13
2023-02-02T00:56:31.631Z,101242.91
2023-02-02T00:58:58.249Z,101244.66
2023-02-02T01:01:24.762Z,101242.09
2023-02-02T01:03:51.404Z,101247.28
2023-02-02T01:06:18.449Z,101252.50
2023-02-02T01:08:45.022Z,101256.84
2023-02-02T01:11:11.494Z,101262.91
2023-02-02T01:13:38.023Z,101257.72
2023-02-02T01:16:05.282Z,101277.69
2023-02-02T01:18:32.222Z,101261.19
2023-02-02T01:21:08.729Z,101269.00
2023-02-02T01:23:36.780Z,101281.16
2023-02-02T01:26:07.308Z,101280.28
2023-02-02T01:28:34.526Z,101267.25
2023-02-02T01:31:07.843Z,101282.03
2023-02-02T01:33:34.348Z,101276.81
2023-02-02T01:36:05.827Z,101278.53
2023-02-02T01:38:32.764Z,101273.34
2023-02-02T01:40:59.745Z,101276.81
2023-02-02T01:43:50.223Z,101280.28
2023-02-02T01:46:21.997Z,101287.22
2023-02-02T01:49:12.916Z,101291.56
2023-02-02T01:51:45.564Z,101292.44
2023-02-02T01:54:18.262Z,101293.31
2023-02-02T01:56:51.478Z,101287.22
2023-02-02T01:59:18.670Z,101296.78
2023-02-02T02:01:47.760Z,101288.97
2023-02-02T02:04:15.483Z,101290.69
2023-02-02T02:06:42.656Z,101295.03
2023-02-02T02:09:09.144Z,101296.78
2023-02-02T02:11:36.340Z,101296.78
2023-02-02T02:14:27.071Z,101294.16
2023-02-02T02:17:14.658Z,101288.09
2023-02-02T02:20:37.533Z,101286.34
2023-02-02T02:23:37.727Z,101284.63
2023-02-02T02:27:02.123Z,101282.03
2023-02-02T02:30:02.099Z,101275.91
2023-02-02T02:32:46.387Z,101279.38
2023-02-02T02:35:35.780Z,101277.59
2023-02-02T02:38:11.274Z,101277.59
2023-02-02T02:40:55.917Z,101275.88
2023-02-02T02:43:33.361Z,101279.31
2023-02-02T02:46:00.303Z,101284.50
2023-02-02T02:48:26.924Z,101281.91
2023-02-02T02:50:53.355Z,101274.97
2023-02-02T02:53:24.208Z,101274.97
2023-02-02T02:56:33.224Z,101282.75
2023-02-02T02:59:11.694Z,101281.91
2023-02-02T03:01:49.820Z,101284.50
2023-02-02T03:04:31.875Z,101294.88
2023-02-02T03:07:06.561Z,101287.06
2023-02-02T03:09:40.166Z,101287.06
2023-02-02T03:12:06.739Z,101299.19
2023-02-02T03:14:37.914Z,101291.41
2023-02-02T03:17:04.370Z,101294.00
2023-02-02T03:19:31.256Z,101287.94
2023-02-02T03:21:57.731Z,101288.78
2023-02-02T03:24:24.164Z,101290.53
2023-02-02T03:26:51.463Z,101281.84
2023-02-02T03:29:18.250Z,101286.19
2023-02-02T03:31:45.930Z,101288.78
2023-02-02T03:34:12.394Z,101291.41
2023-02-02T03:36:38.833Z,101287.94
2023-02-02T03:39:05.283Z,101303.53
2023-02-02T03:41:31.770Z,101299.22
2023-02-02T03:43:58.227Z,101284.47
2023-02-02T03:46:24.738Z,101283.59
2023-02-02T03:48:51.175Z,101284.47
2023-02-02T03:51:17.739Z,101287.94
2023-02-02T03:53:44.484Z,101300.06
2023-02-02T03:56:11.276Z,101292.25
2023-02-02T03:58:37.712Z,101294.00
2023-02-02T04:01:06.145Z,101300.94
2023-02-02T04:03:33.332Z,101294.81
2023-02-02T04:06:00.479Z,101289.59
2023-02-02T04:08:28.405Z,101299.16
2023-02-02T04:10:54.958Z,101294.81
2023-02-02T04:13:21.588Z,101293.91
2023-02-02T04:15:48.185Z,101299.09
2023-02-02T04:18:14.669Z,101293.91
2023-02-02T04:20:41.127Z,101298.25
2023-02-02T04:23:07.562Z,101297.41
2023-02-02T04:25:33.974Z,101306.94
2023-02-02T04:28:00.391Z,101303.47
2023-02-02T04:30:26.814Z,101309.56
2023-02-02T04:32:54.608Z,101317.38
2023-02-02T04:35:21.058Z,101305.22
2023-02-02T04:37:47.485Z,101317.38
2023-02-02T04:40:14.460Z,101302.63
2023-02-02T04:42:40.939Z,101313.03
2023-02-02T04:45:07.877Z,101315.63
2023-02-02T04:47:34.288Z,101325.19
2023-02-02T04:50:00.744Z,101318.25
2023-02-02T04:52:29.038Z,101319.97
2023-02-02T04:54:55.492Z,101321.72
2023-02-02T04:57:22.075Z,101327.78
2023-02-02T04:59:48.520Z,101317.38
2023-02-02T05:02:14.960Z,101317.38
2023-02-02T05:04:41.463Z,101309.56
2023-02-02T05:07:07.927Z,101315.63
2023-02-02T05:09:34.444Z,101326.03
2023-02-02T05:12:00.844Z,101332.13
2023-02-02T05:14:27.292Z,101329.53
2023-02-02T05:16:54.446Z,101329.56
2023-02-02T05:19:21.000Z,101335.63
2023-02-02T05:21:51.223Z,101330.44
2023-02-02T05:24:18.060Z,101319.16
2023-02-02T05:26:44.562Z,101313.06
2023-02-02T05:29:11.124Z,101319.97
2023-02-02T05:31:37.751Z,101314.78
2023-02-02T05:34:06.797Z,101322.63
2023-02-02T05:36:33.265Z,101327.84
2023-02-02T05:39:00.388Z,101314.88
2023-02-02T05:41:26.807Z,101310.50
2023-02-02T05:43:53.272Z,101311.34
2023-02-02T05:46:19.808Z,101307.00
2023-02-02T05:48:46.334Z,101301.81
2023-02-02T05:51:19.219Z,101319.16
2023-02-02T05:53:46.119Z,101314.81
2023-02-02T05:56:13.782Z,101313.94
2023-02-02T05:58:40.274Z,101326.09
2023-02-02T06:01:06.935Z,101327.00
2023-02-02T06:03:33.519Z,101331.34
2023-02-02T06:06:00.119Z,101334.81
2023-02-02T06:08:26.717Z,101329.63
2023-02-02T06:10:53.856Z,101338.31
2023-02-02T06:13:22.379Z,101334.88
2023-02-02T06:15:49.055Z,101336.56
2023-02-02T06:18:15.696Z,101336.59
2023-02-02T06:20:42.168Z,101341.81
2023-02-02T06:23:08.753Z,101341.81
2023-02-02T06:25:35.299Z,101343.56
2023-02-02T06:28:01.717Z,101345.31
2023-02-02T06:30:28.293Z,101345.34
2023-02-02T06:32:54.779Z,101351.41
2023-02-02T06:35:21.475Z,101344.47
2023-02-02T06:37:49.130Z,101350.50
2023-02-02T06:40:15.757Z,101357.44
2023-02-02T06:42:42.198Z,101341.81
2023-02-02T06:45:09.290Z,101353.09
2023-02-02T06:47:35.749Z,101356.56
2023-02-02T06:50:02.439Z,101353.06
2023-02-02T06:52:29.020Z,101360.00
2023-02-02T06:54:55.490Z,101368.66
2023-02-02T06:57:21.961Z,101352.19
2023-02-02T06:59:48.400Z,101372.13
2023-02-02T07:02:14.896Z,101365.19
2023-02-02T07:04:41.954Z,101365.19
2023-02-02T07:07:08.437Z,101374.75
2023-02-02T07:09:35.690Z,101379.09
2023-02-02T07:12:02.137Z,101379.09
2023-02-02T07:14:28.539Z,101376.47
2023-02-02T07:16:54.975Z,101382.56
2023-02-02T07:19:21.364Z,101379.09
2023-02-02T07:21:47.853Z,101386.03
2023-02-02T07:24:14.291Z,101376.47
2023-02-02T07:26:41.038Z,101388.63
2023-02-02T07:29:07.747Z,101379.06
2023-02-02T07:31:36.594Z,101385.16
2023-02-02T07:34:03.517Z,101387.75
2023-02-02T07:36:29.971Z,101397.31
2023-02-02T07:38:57.686Z,101392.09
2023-02-02T07:41:24.796Z,101394.69
2023-02-02T07:43:52.030Z,101398.16
2023-02-02T07:46:19.621Z,101387.75
2023-02-02T07:48:46.616Z,101392.09
2023-02-02T07:51:15.642Z,101405.97
2023-02-02T07:53:50.695Z,101394.69
2023-02-02T07:56:20.009Z,101395.56
2023-02-02T07:58:46.821Z,101392.91
2023-02-02T08:01:15.886Z,101394.63
2023-02-02T08:03:43.919Z,101399.84
2023-02-02T08:06:12.756Z,101396.38
2023-02-02T08:08:39.271Z,101404.16
2023-02-02T08:11:09.959Z,101402.44
2023-02-02T08:13:36.518Z,101411.94
2023-02-02T08:16:03.310Z,101407.59
2023-02-02T08:18:29.762Z,101417.13
2023-02-02T08:21:00.576Z,101417.19
2023-02-02T08:23:27.719Z,101406.78
2023-02-02T08:25:54.902Z,101412.00
2023-02-02T08:28:21.674Z,101413.72
2023-02-02T08:30:48.333Z,101418.06
2023-02-02T08:33:14.865Z,101416.31
2023-02-02T08:35:44.485Z,101418.06
2023-02-02T08:38:10.894Z,101422.41
2023-02-02T08:40:37.426Z,101426.75
2023-02-02T08:43:04.396Z,101442.38
2023-02-02T08:46:03.994Z,101429.34
2023-02-02T08:48:19.795Z,101432.81
2023-02-02T08:50:52.313Z,101444.16
2023-02-02T08:53:19.004Z,101456.31
2023-02-02T08:55:45.513Z,101435.47
2023-02-02T08:58:11.959Z,101457.19
2023-02-02T09:00:38.548Z,101455.44
2023-02-02T09:03:05.421Z,101445.03
2023-02-02T09:05:31.961Z,101451.97
2023-02-02T09:07:58.516Z,101469.31
2023-02-02T09:10:24.980Z,101460.63
2023-02-02T09:12:51.552Z,101458.84
2023-02-02T09:15:17.936Z,101466.72
2023-02-02T09:17:45.104Z,101478.84
2023-02-02T09:20:12.246Z,101478.00
2023-02-02T09:22:38.644Z,101488.41
2023-02-02T09:25:05.464Z,101489.28
2023-02-02T09:27:37.298Z,101492.75
2023-02-02T09:30:04.357Z,101499.63
2023-02-02T09:32:30.844Z,101500.50
2023-02-02T09:34:57.349Z,101503.09
2023-02-02T09:37:23.816Z,101509.19
2023-02-02T09:39:50.266Z,101512.66
2023-02-02T09:42:47.962Z,101518.72
2023-02-02T09:45:59.406Z,101523.09
2023-02-02T09:48:57.010Z,101533.50
2023-02-02T09:51:28.655Z,101531.75
2023-02-02T09:54:21.495Z,101538.72
2023-02-02T09:56:54.625Z,101533.50
2023-02-02T09:59:25.758Z,101545.66
2023-02-02T10:01:56.209Z,101556.97
2023-02-02T10:04:26.104Z,101556.97
2023-02-02T10:06:59.100Z,101565.66
2023-02-02T10:09:31.482Z,101570.88
2023-02-02T10:12:16.940Z,101565.66
2023-02-02T10:14:58.825Z,101554.44
2023-02-02T10:17:46.785Z,101564.84
2023-02-02T10:20:47.707Z,101568.31
2023-02-02T10:23:44.607Z,101577.00
2023-02-02T10:26:21.181Z,101578.75
2023-02-02T10:29:09.389Z,101575.28
2023-02-02T10:31:43.368Z,101588.31
2023-02-02T10:34:50.374Z,101600.47
2023-02-02T10:37:22.876Z,101583.97
2023-02-02T10:40:23.517Z,101590.09
2023-02-02T10:43:10.007Z,101590.09
2023-02-02T10:45:39.094Z,101593.59
2023-02-02T10:48:18.512Z,101584.91
2023-02-02T10:50:53.811Z,101590.13
2023-02-02T10:53:20.896Z,101607.50
2023-02-02T10:55:53.982Z,101587.53
2023-02-02T10:58:28.624Z,101582.38
2023-02-02T11:00:58.221Z,101584.09
2023-02-02T11:03:30.994Z,101587.59
2023-02-02T11:06:18.407Z,101586.72
2023-02-02T11:08:56.566Z,101584.13
2023-02-02T11:11:38.262Z,101591.94
2023-02-02T11:14:07.375Z,101593.72
2023-02-02T11:16:43.045Z,101592.00
2023-02-02T11:19:22.469Z,101599.84
2023-02-02T11:21:53.238Z,101597.22
2023-02-02T11:24:46.291Z,101608.53
2023-02-02T11:27:14.920Z,101607.69
2023-02-02T11:29:51.692Z,101605.97
2023-02-02T11:32:30.692Z,101603.34
2023-02-02T11:35:21.876Z,101604.19
2023-02-02T11:38:03.013Z,101599.00
2023-02-02T11:40:34.099Z,101603.34
2023-02-02T11:43:04.866Z,101600.72
2023-02-02T11:45:40.947Z,101598.16
2023-02-02T11:48:35.754Z,101613.78
2023-02-02T11:51:03.474Z,101591.22
2023-02-02T11:53:46.769Z,101586.00
2023-02-02T11:56:25.523Z,101591.22
2023-02-02T11:59:00.831Z,101586.00
2023-02-02T12:01:27.202Z,101582.53
2023-02-02T12:03:59.322Z,101588.63
2023-02-02T12:06:33.889Z,101586.00
2023-02-02T12:09:02.455Z,101585.13
2023-02-02T12:11:47.990Z,101586.88
2023-02-02T12:14:31.805Z,101587.75
2023-02-02T12:17:11.144Z,101593.00
2023-02-02T12:20:00.675Z,101586.94
2023-02-02T12:22:51.077Z,101593.91
2023-02-02T12:25:32.789Z,101590.44
2023-02-02T12:28:01.866Z,101579.19
2023-02-02T12:30:40.429Z,101587.88
2023-02-02T12:33:06.966Z,101591.38
2023-02-02T12:36:01.287Z,101595.75
2023-02-02T12:38:57.670Z,101580.13
2023-02-02T12:41:58.276Z,101587.97
2023-02-02T12:44:59.819Z,101581.06
2023-02-02T12:47:38.793Z,101581.88
2023-02-02T12:50:33.211Z,101581.88
2023-02-02T12:53:17.018Z,101586.28
2023-02-02T12:56:00.684Z,101580.25
2023-02-02T12:58:45.122Z,101574.16
2023-02-02T13:01:39.121Z,101577.63
2023-02-02T13:04:07.541Z,101587.19
2023-02-02T13:06:52.864Z,101583.72
2023-02-02T13:09:58.549Z,101577.63
2023-02-02T13:12:26.450Z,101590.66
2023-02-02T13:15:01.154Z,101589.81
2023-02-02T13:17:34.263Z,101582.00
2023-02-02T13:20:04.573Z,101588.94
2023-02-02T13:22:39.113Z,101590.69
2023-02-02T13:25:14.652Z,101591.59
2023-02-02T13:27:42.516Z,101599.41
2023-02-02T13:30:35.033Z,101590.69
2023-02-02T13:33:13.559Z,101600.22
2023-02-02T13:35:52.126Z,101608.00
2023-02-02T13:38:23.863Z,101609.72
2023-02-02T13:40:54.292Z,101605.38
2023-02-02T13:43:23.970Z,101608.81
2023-02-02T13:45:53.381Z,101616.63
2023-02-02T13:48:32.766Z,101612.25
2023-02-02T13:51:14.093Z,101620.03
2023-02-02T13:53:43.493Z,101603.53
2023-02-02T13:56:28.562Z,101613.94
2023-02-02T13:59:26.982Z,101615.69
2023-02-02T14:01:54.801Z,101614.81
2023-02-02T14:04:26.460Z,101616.53
2023-02-02T14:06:59.786Z,101616.53
2023-02-02T14:09:28.777Z,101611.28
2023-02-02T14:12:02.215Z,101616.47
2023-02-02T14:14:33.053Z,101607.78
2023-02-02T14:17:00.664Z,101613.88
2023-02-02T14:19:33.073Z,101609.53
2023-02-02T14:22:14.732Z,101606.06
2023-02-02T14:24:44.716Z,101609.53
2023-02-02T14:27:11.235Z,101612.13
2023-02-02T14:29:47.228Z,101613.88
2023-02-02T14:32:29.319Z,101612.13
2023-02-02T14:35:08.211Z,101608.66
2023-02-02T14:37:58.512Z,101616.47
2023-02-02T14:40:48.127Z,101618.22
2023-02-02T14:43:46.100Z,101619.06
2023-02-02T14:46:12.708Z,101619.94
2023-02-02T14:48:41.968Z,101625.16
2023-02-02T14:51:18.762Z,101619.97
2023-02-02T14:53:51.928Z,101626.03
2023-02-02T14:56:19.225Z,101622.56
2023-02-02T14:58:51.714Z,101629.56
2023-02-02T15:01:18.194Z,101634.78
2023-02-02T15:04:00.369Z,101637.38
2023-02-02T15:06:36.328Z,101631.38
2023-02-02T15:09:26.451Z,101635.72
2023-02-02T15:12:00.859Z,101638.34
2023-02-02T15:14:36.680Z,101633.13
2023-02-02T15:17:08.111Z,101648.81
2023-02-02T15:19:40.199Z,101647.09
2023-02-02T15:22:18.569Z,101655.84
2023-02-02T15:24:45.784Z,101651.50
2023-02-02T15:27:17.632Z,101646.25
2023-02-02T15:29:47.055Z,101645.41
2023-02-02T15:32:20.437Z,101664.53
2023-02-02T15:34:51.274Z,101653.25
2023-02-02T15:37:23.498Z,101667.16
2023-02-02T15:39:56.969Z,101657.59
2023-02-02T15:42:52.972Z,101663.69
2023-02-02T15:45:29.229Z,101669.75
2023-02-02T15:47:57.885Z,101673.25
2023-02-02T15:50:25.269Z,101686.28
2023-02-02T15:52:53.683Z,101675.03
2023-02-02T15:55:21.999Z,101686.25
2023-02-02T15:57:48.538Z,101687.06
2023-02-02T16:00:35.855Z,101691.34
2023-02-02T16:03:05.558Z,101697.41
2023-02-02T16:05:52.267Z,101697.34
2023-02-02T16:08:24.355Z,101699.06
2023-02-02T16:11:01.149Z,101704.22
2023-02-02T16:13:29.279Z,101697.25
2023-02-02T16:16:06.811Z,101702.44
2023-02-02T16:18:35.092Z,101707.66
2023-02-02T16:21:06.888Z,101713.72
2023-02-02T16:23:35.035Z,101713.72
2023-02-02T16:26:05.372Z,101712.81
2023-02-02T16:28:32.608Z,101713.66
2023-02-02T16:31:01.062Z,101718.88
2023-02-02T16:33:36.812Z,101719.75
2023-02-02T16:36:29.728Z,101714.50
2023-02-02T16:38:58.154Z,101717.97
2023-02-02T16:41:34.207Z,101726.63
2023-02-02T16:44:28.786Z,101726.63
2023-02-02T16:46:55.455Z,101723.13
2023-02-02T16:49:23.947Z,101736.16
2023-02-02T16:52:15.872Z,101731.81
2023-02-02T16:54:51.718Z,101739.63
2023-02-02T16:57:22.279Z,101736.13
2023-02-02T16:59:58.334Z,101741.34
2023-02-02T17:02:40.591Z,101745.69
2023-02-02T17:05:07.724Z,101738.75
2023-02-02T17:07:37.747Z,101741.34
2023-02-02T17:10:16.527Z,101743.06
2023-02-02T17:12:44.655Z,101734.41
2023-02-02T17:15:17.102Z,101742.22
2023-02-02T17:17:48.656Z,101739.59
2023-02-02T17:20:19.360Z,101740.47
2023-02-02T17:22:48.489Z,101730.03
2023-02-02T17:25:37.183Z,101726.56
2023-02-02T17:28:09.818Z,101730.94
2023-02-02T17:30:36.700Z,101734.41
2023-02-02T17:33:03.315Z,101739.63
2023-02-02T17:35:39.812Z,101738.75
2023-02-02T17:38:13.950Z,101743.97
2023-02-02T17:40:40.431Z,101741.38
2023-02-02T17:43:11.238Z,101748.31
2023-02-02T17:45:38.637Z,101741.38
2023-02-02T17:48:06.169Z,101745.72
2023-02-02T17:50:33.827Z,101749.19
2023-02-02T17:53:00.268Z,101750.13
2023-02-02T17:55:32.756Z,101745.75
2023-02-02T17:57:59.236Z,101755.31
2023-02-02T18:00:28.730Z,101749.25
2023-02-02T18:03:05.597Z,101752.72
2023-02-02T18:05:32.096Z,101756.19
2023-02-02T18:07:58.546Z,101762.28
2023-02-02T18:10:26.264Z,101760.56
2023-02-02T18:12:52.958Z,101761.44
2023-02-02T18:15:19.528Z,101765.75
2023-02-02T18:17:46.088Z,101764.03
2023-02-02T18:20:15.140Z,101776.19
2023-02-02T18:22:47.626Z,101771.84
2023-02-02T18:25:14.690Z,101755.34
2023-02-02T18:27:41.335Z,101756.22
2023-02-02T18:30:08.532Z,101762.31
2023-02-02T18:32:39.667Z,101777.09
2023-02-02T18:35:08.358Z,101770.13
2023-02-02T18:37:36.204Z,101771.06
2023-02-02T18:40:03.312Z,101775.41
2023-02-02T18:42:32.183Z,101773.66
2023-02-02T18:45:02.587Z,101766.75
2023-02-02T18:47:29.110Z,101770.22
2023-02-02T18:49:55.638Z,101760.66
2023-02-02T18:52:22.799Z,101758.94
2023-02-02T18:54:49.825Z,101753.72
2023-02-02T18:57:17.031Z,101756.31
2023-02-02T18:59:43.883Z,101749.38
2023-02-02T19:02:18.244Z,101759.78
2023-02-02T19:05:14.938Z,101754.56
2023-02-02T19:07:59.158Z,101746.75
2023-02-02T19:10:27.349Z,101747.63
2023-02-02T19:13:06.659Z,101752.84
2023-02-02T19:15:37.057Z,101746.72
2023-02-02T19:18:13.657Z,101748.47
2023-02-02T19:20:40.782Z,101748.47
2023-02-02T19:23:13.052Z,101742.38
2023-02-02T19:25:40.904Z,101742.38
2023-02-02T19:28:19.573Z,101752.81
2023-02-02T19:30:46.386Z,101754.50
2023-02-02T19:33:15.276Z,101758.91
2023-02-02T19:35:47.890Z,101754.56
2023-02-02T19:38:16.007Z,101757.16
2023-02-02T19:40:43.565Z,101764.97
2023-02-02T19:43:09.996Z,101765.00
2023-02-02T19:45:37.717Z,101769.34
2023-02-02T19:48:30.984Z,101769.34
2023-02-02T19:50:58.176Z,101767.63
2023-02-02T19:53:37.661Z,101768.47
2023-02-02T19:56:22.946Z,101769.38
2023-02-02T19:58:49.425Z,101768.53
2023-02-02T20:01:20.364Z,101768.53
2023-02-02T20:03:47.205Z,101768.53
2023-02-02T20:06:25.954Z,101763.31
2023-02-02T20:08:52.904Z,101766.84
2023-02-02T20:11:32.741Z,101758.16
2023-02-02T20:14:29.234Z,101765.97
2023-02-02T20:17:00.934Z,101764.22
2023-02-02T20:19:33.598Z,101764.22
2023-02-02T20:22:00.330Z,101750.31
2023-02-02T20:24:40.610Z,101755.53
2023-02-02T20:27:22.820Z,101745.97
2023-02-02T20:29:52.938Z,101750.28
2023-02-02T20:32:20.784Z,101757.25
2023-02-02T20:34:48.478Z,101745.09
2023-02-02T20:37:31.679Z,101746.84
2023-02-02T20:40:06.889Z,101745.97
2023-02-02T20:42:33.351Z,101746.84
2023-02-02T20:45:00.250Z,101751.19
2023-02-02T20:47:26.684Z,101741.63
2023-02-02T20:49:53.267Z,101739.91
2023-02-02T20:52:23.960Z,101738.16
2023-02-02T20:54:51.759Z,101752.91
2023-02-02T20:57:18.752Z,101753.81
2023-02-02T20:59:45.324Z,101752.94
2023-02-02T21:02:19.409Z,101752.91
2023-02-02T21:04:50.151Z,101760.75
2023-02-02T21:07:20.366Z,101757.28
2023-02-02T21:09:49.968Z,101766.88
2023-02-02T21:12:18.258Z,101765.09
2023-02-02T21:14:47.547Z,101768.59
2023-02-02T21:17:16.015Z,101773.84
2023-02-02T21:19:46.437Z,101780.78
2023-02-02T21:22:13.230Z,101775.53
2023-02-02T21:24:40.371Z,101798.19
2023-02-02T21:27:07.559Z,101783.41
2023-02-02T21:29:34.181Z,101803.41
2023-02-02T21:32:02.655Z,101811.22
2023-02-02T21:34:30.738Z,101807.75
2023-02-02T21:36:58.280Z,101808.63
2023-02-02T21:39:28.931Z,101810.34
2023-02-02T21:42:11.356Z,101804.28
2023-02-02T21:44:44.521Z,101810.41
2023-02-02T21:47:26.629Z,101805.25
2023-02-02T21:49:55.498Z,101803.50
2023-02-02T21:52:22.196Z,101804.28
2023-02-02T21:54:49.411Z,101808.69
2023-02-02T21:57:21.279Z,101802.53
2023-02-02T21:59:57.208Z,101808.69
2023-02-02T22:02:44.976Z,101796.53
2023-02-02T22:05:37.742Z,101800.88
2023-02-02T22:08:20.597Z,101796.53
2023-02-02T22:10:47.618Z,101795.69
2023-02-02T22:13:23.341Z,101793.09
2023-02-02T22:15:51.819Z,101793.06
2023-02-02T22:18:23.871Z,101788.72
2023-02-02T22:20:52.471Z,101785.25
2023-02-02T22:23:24.694Z,101787.84
2023-02-02T22:25:54.132Z,101788.72
2023-02-02T22:28:26.031Z,101788.75
2023-02-02T22:30:53.778Z,101792.22
2023-02-02T22:33:21.867Z,101800.91
2023-02-02T22:35:48.590Z,101791.41
2023-02-02T22:38:20.443Z,101792.28
2023-02-02T22:40:48.068Z,101788.81
2023-02-02T22:43:16.586Z,101783.59
2023-02-02T22:45:43.673Z,101791.41
2023-02-02T22:48:11.064Z,101792.25
2023-02-02T22:50:37.623Z,101794.00
2023-02-02T22:53:04.898Z,101780.97
2023-02-02T22:55:32.500Z,101786.22
2023-02-02T22:57:59.069Z,101789.69
2023-02-02T23:00:28.741Z,101783.59
2023-02-02T23:02:56.337Z,101777.53
2023-02-02T23:05:23.939Z,101783.59
2023-02-02T23:07:51.000Z,101785.38
2023-02-02T23:10:20.161Z,101789.75
2023-02-02T23:12:47.260Z,101780.22
2023-02-02T23:15:14.560Z,101772.41
2023-02-02T23:17:41.532Z,101779.34
2023-02-02T23:20:11.117Z,101768.03
2023-02-02T23:22:37.782Z,101775.00
2023-02-02T23:25:04.992Z,101777.66
2023-02-02T23:27:31.573Z,101786.38
2023-02-02T23:29:57.994Z,101782.91
2023-02-02T23:32:24.520Z,101773.31
2023-02-02T23:34:51.030Z,101781.13
2023-02-02T23:37:17.513Z,101781.16
2023-02-02T23:39:43.930Z,101782.03
2023-02-02T23:42:10.374Z,101777.69
2023-02-02T23:44:37.332Z,101762.03
2023-02-02T23:47:04.140Z,101751.59
2023-02-02T23:49:34.214Z,101737.69
2023-02-02T23:52:00.980Z,101736.81
2023-02-02T23:54:28.229Z,101738.50
2023-02-02T23:56:55.609Z,101741.97
2023-02-02T23:59:22.142Z,101729.84
